createdAt,value
2018-12-25T00:02:10.795Z,6.00
2018-12-25T00:04:38.955Z,5.77
2018-12-25T00:07:07.257Z,6.93
2018-12-25T00:09:35.420Z,5.20
2018-12-25T00:12:03.854Z,6.80
2018-12-25T00:14:32.255Z,6.47
2018-12-25T00:17:00.451Z,6.13
2018-12-25T00:19:28.612Z,5.33
2018-12-25T00:21:56.776Z,5.27
2018-12-25T00:24:24.975Z,5.90
2018-12-25T00:26:53.155Z,5.57
2018-12-25T00:29:21.340Z,6.30
2018-12-25T00:31:49.744Z,5.33
2018-12-25T00:34:17.936Z,5.70
2018-12-25T00:36:46.098Z,7.00
2018-12-25T00:39:14.296Z,6.20
2018-12-25T00:41:42.467Z,5.43
2018-12-25T00:44:10.680Z,6.10
2018-12-25T00:46:38.839Z,6.40
2018-12-25T00:49:14.578Z,5.63
2018-12-25T00:51:36.853Z,6.03
2018-12-25T00:54:05.115Z,4.83
2018-12-25T00:56:33.309Z,5.30
2018-12-25T00:59:01.507Z,5.13
2018-12-25T01:01:29.729Z,5.13
2018-12-25T01:03:57.919Z,5.97
2018-12-25T01:06:26.089Z,5.57
2018-12-25T01:08:54.288Z,5.60
2018-12-25T01:11:22.450Z,5.80
2018-12-25T01:13:50.656Z,5.77
2018-12-25T01:16:18.815Z,17.90
2018-12-25T01:18:47.018Z,5.33
2018-12-25T01:21:15.188Z,7.00
2018-12-25T01:23:43.397Z,5.63
2018-12-25T01:26:11.562Z,7.53
2018-12-25T01:28:39.927Z,9.43
2018-12-25T01:31:08.095Z,5.80
2018-12-25T01:33:36.296Z,7.80
2018-12-25T01:36:04.458Z,6.30
2018-12-25T01:38:32.619Z,6.60
2018-12-25T01:41:00.822Z,7.70
2018-12-25T01:43:28.987Z,6.57
2018-12-25T01:45:57.191Z,7.77
2018-12-25T01:48:25.360Z,6.23
2018-12-25T01:50:53.565Z,5.60
2018-12-25T01:53:21.737Z,6.97
2018-12-25T01:55:49.944Z,10.13
2018-12-25T01:58:18.109Z,5.87
2018-12-25T02:00:46.310Z,9.47
2018-12-25T02:03:14.478Z,7.63
2018-12-25T02:05:42.684Z,7.67
2018-12-25T02:08:10.850Z,7.57
2018-12-25T02:10:39.050Z,6.03
2018-12-25T02:13:07.215Z,4.47
2018-12-25T02:15:35.419Z,6.77
2018-12-25T02:18:03.617Z,7.93
2018-12-25T02:20:31.797Z,7.53
2018-12-25T02:22:59.991Z,11.97
2018-12-25T02:25:28.155Z,7.17
2018-12-25T02:27:56.369Z,7.23
2018-12-25T02:30:24.532Z,7.47
2018-12-25T02:32:52.838Z,7.83
2018-12-25T02:35:21.045Z,7.30
2018-12-25T02:37:49.210Z,6.57
2018-12-25T02:40:17.380Z,6.53
2018-12-25T02:42:45.585Z,6.50
2018-12-25T02:45:13.752Z,6.63
2018-12-25T02:47:42.055Z,6.67
2018-12-25T02:50:10.215Z,6.00
2018-12-25T02:52:38.411Z,7.53
2018-12-25T02:55:06.581Z,7.57
2018-12-25T02:57:34.783Z,7.83
2018-12-25T03:00:03.319Z,5.63
2018-12-25T03:02:31.532Z,6.80
2018-12-25T03:04:59.696Z,6.23
2018-12-25T03:07:27.901Z,7.93
2018-12-25T03:09:56.074Z,7.40
2018-12-25T03:12:24.271Z,7.80
2018-12-25T03:14:52.433Z,7.93
2018-12-25T03:17:20.636Z,7.67
2018-12-25T03:19:48.804Z,7.30
2018-12-25T03:22:17.011Z,6.13
2018-12-25T03:24:45.189Z,7.23
2018-12-25T03:27:13.393Z,8.93
2018-12-25T03:29:41.563Z,7.43
2018-12-25T03:32:09.773Z,9.20
2018-12-25T03:34:38.038Z,9.00
2018-12-25T03:37:06.242Z,10.00
2018-12-25T03:39:34.416Z,8.57
2018-12-25T03:42:02.626Z,10.10
2018-12-25T03:44:30.795Z,7.33
2018-12-25T03:46:58.965Z,7.33
2018-12-25T03:49:27.163Z,8.10
2018-12-25T03:51:55.327Z,7.60
2018-12-25T03:54:23.531Z,10.37
2018-12-25T03:56:51.699Z,8.07
2018-12-25T03:59:19.905Z,8.60
2018-12-25T04:01:48.068Z,7.80
2018-12-25T04:04:16.277Z,8.70
2018-12-25T04:06:44.451Z,7.77
2018-12-25T04:09:12.652Z,7.00
2018-12-25T04:11:40.825Z,9.83
2018-12-25T04:14:09.028Z,7.60
2018-12-25T04:16:37.191Z,9.57
2018-12-25T04:19:05.398Z,8.43
2018-12-25T04:21:33.564Z,10.30
2018-12-25T04:24:01.768Z,10.83
2018-12-25T04:26:29.937Z,9.93
2018-12-25T04:28:58.137Z,7.97
2018-12-25T04:31:26.304Z,7.97
2018-12-25T04:33:54.507Z,6.70
2018-12-25T04:36:22.678Z,11.23
2018-12-25T04:38:50.883Z,10.40
2018-12-25T04:41:19.051Z,8.83
2018-12-25T04:43:47.254Z,11.33
2018-12-25T04:46:15.419Z,7.67
2018-12-25T04:48:43.617Z,9.60
2018-12-25T04:51:11.794Z,8.27
2018-12-25T04:53:40.002Z,9.67
2018-12-25T04:56:08.168Z,10.77
2018-12-25T04:58:36.370Z,9.67
2018-12-25T05:01:04.532Z,8.80
2018-12-25T05:03:32.736Z,9.83
2018-12-25T05:06:00.896Z,9.67
2018-12-25T05:08:29.115Z,10.10
2018-12-25T05:10:57.283Z,9.43
2018-12-25T05:13:25.492Z,10.87
2018-12-25T05:15:53.656Z,9.80
2018-12-25T05:18:21.860Z,9.43
2018-12-25T05:20:50.064Z,8.93
2018-12-25T05:23:18.240Z,10.30
2018-12-25T05:25:46.452Z,10.13
2018-12-25T05:28:14.628Z,9.90
2018-12-25T05:30:42.834Z,10.93
2018-12-25T05:33:11.082Z,10.47
2018-12-25T05:35:39.283Z,10.17
2018-12-25T05:38:07.455Z,10.47
2018-12-25T05:40:35.664Z,10.17
2018-12-25T05:43:03.837Z,9.03
2018-12-25T05:45:32.048Z,8.90
2018-12-25T05:48:00.206Z,8.53
2018-12-25T05:50:28.411Z,7.13
2018-12-25T05:52:56.587Z,12.17
2018-12-25T05:55:24.796Z,11.20
2018-12-25T05:57:52.965Z,9.47
2018-12-25T06:00:21.126Z,11.00
2018-12-25T06:02:49.331Z,10.67
2018-12-25T06:05:17.504Z,7.33
2018-12-25T06:07:45.704Z,9.97
2018-12-25T06:10:13.870Z,7.40
2018-12-25T06:12:42.143Z,9.00
2018-12-25T06:15:10.343Z,7.13
2018-12-25T06:17:38.547Z,12.77
2018-12-25T06:20:06.725Z,22.87
2018-12-25T06:22:34.939Z,19.80
2018-12-25T06:25:03.121Z,15.10
2018-12-25T06:27:31.316Z,11.37
2018-12-25T06:29:59.480Z,12.10
2018-12-25T06:32:27.683Z,8.40
2018-12-25T06:34:55.848Z,9.23
2018-12-25T06:37:24.061Z,11.77
2018-12-25T06:39:52.233Z,12.60
2018-12-25T06:42:20.444Z,10.00
2018-12-25T06:44:48.611Z,10.53
2018-12-25T06:47:16.817Z,6.87
2018-12-25T06:49:44.989Z,13.43
2018-12-25T06:52:13.186Z,13.37
2018-12-25T06:54:41.376Z,6.97
2018-12-25T06:57:09.585Z,15.63
2018-12-25T06:59:37.752Z,10.23
2018-12-25T07:02:05.956Z,11.70
2018-12-25T07:04:34.126Z,14.37
2018-12-25T07:07:02.333Z,16.37
2018-12-25T07:09:30.499Z,6.53
2018-12-25T07:11:58.708Z,8.43
2018-12-25T07:14:26.876Z,8.13
2018-12-25T07:16:55.096Z,9.73
2018-12-25T07:19:23.260Z,9.73
2018-12-25T07:21:51.432Z,10.20
2018-12-25T07:24:19.635Z,7.87
2018-12-25T07:26:47.809Z,6.50
2018-12-25T07:29:16.008Z,8.27
2018-12-25T07:31:44.179Z,11.70
2018-12-25T07:34:12.389Z,11.93
2018-12-25T07:36:40.560Z,10.93
2018-12-25T07:39:08.767Z,9.70
2018-12-25T07:41:36.937Z,11.93
2018-12-25T07:44:05.140Z,9.27
2018-12-25T07:46:33.312Z,10.90
2018-12-25T07:49:01.590Z,11.90
2018-12-25T07:51:29.781Z,12.43
2018-12-25T07:53:57.991Z,11.57
2018-12-25T07:56:26.162Z,6.27
2018-12-25T07:58:54.372Z,12.90
2018-12-25T08:01:22.544Z,14.43
2018-12-25T08:03:50.747Z,13.73
2018-12-25T08:06:18.925Z,13.40
2018-12-25T08:08:47.131Z,16.20
2018-12-25T08:11:15.300Z,12.53
2018-12-25T08:13:43.509Z,12.77
2018-12-25T08:16:11.679Z,11.47
2018-12-25T08:18:40.244Z,13.90
2018-12-25T08:21:08.459Z,13.63
2018-12-25T08:23:36.671Z,14.47
2018-12-25T08:26:04.836Z,12.37
2018-12-25T08:28:33.018Z,14.47
2018-12-25T08:31:01.225Z,17.50
2018-12-25T08:33:29.402Z,14.43
2018-12-25T08:35:57.600Z,7.47
2018-12-25T08:38:25.772Z,12.27
2018-12-25T08:41:06.137Z,13.80
2018-12-25T08:43:34.939Z,8.00
2018-12-25T08:46:03.151Z,14.33
2018-12-25T08:48:31.388Z,14.27
2018-12-25T08:50:59.596Z,19.23
2018-12-25T08:53:27.768Z,10.03
2018-12-25T08:55:55.975Z,10.07
2018-12-25T08:58:24.140Z,12.27
2018-12-25T09:00:52.344Z,11.67
2018-12-25T09:03:20.524Z,11.10
2018-12-25T09:06:02.001Z,14.93
2018-12-25T09:08:34.793Z,21.97
2018-12-25T09:11:00.472Z,12.90
2018-12-25T09:13:28.894Z,16.13
2018-12-25T09:15:57.264Z,10.60
2018-12-25T09:18:25.444Z,17.70
2018-12-25T09:20:53.649Z,13.00
2018-12-25T09:23:21.823Z,16.50
2018-12-25T09:25:50.028Z,13.57
2018-12-25T09:28:18.200Z,13.57
2018-12-25T09:30:46.404Z,13.87
2018-12-25T09:33:14.749Z,10.90
2018-12-25T09:35:42.955Z,14.57
2018-12-25T09:38:11.123Z,14.70
2018-12-25T09:40:39.332Z,17.20
2018-12-25T09:43:07.497Z,8.83
2018-12-25T09:45:35.700Z,15.03
2018-12-25T09:48:03.875Z,14.13
2018-12-25T09:50:32.087Z,15.93
2018-12-25T09:53:00.360Z,18.17
2018-12-25T09:55:28.567Z,14.97
2018-12-25T09:57:56.749Z,15.20
2018-12-25T10:00:24.917Z,6.10
2018-12-25T10:02:53.127Z,15.10
2018-12-25T10:05:21.300Z,16.77
2018-12-25T10:07:49.504Z,12.70
2018-12-25T10:10:17.680Z,15.77
2018-12-25T10:12:45.887Z,10.40
2018-12-25T10:15:14.059Z,21.70
2018-12-25T10:17:42.269Z,13.03
2018-12-25T10:20:10.441Z,12.30
2018-12-25T10:22:38.648Z,16.73
2018-12-25T10:25:06.811Z,14.83
2018-12-25T10:27:35.014Z,17.10
2018-12-25T10:30:03.183Z,15.77
2018-12-25T10:32:31.392Z,15.17
2018-12-25T10:34:59.564Z,13.90
2018-12-25T10:37:27.784Z,14.77
2018-12-25T10:39:55.956Z,13.83
2018-12-25T10:42:24.167Z,11.40
2018-12-25T10:44:52.339Z,13.40
2018-12-25T10:47:20.549Z,13.73
2018-12-25T10:49:48.718Z,14.77
2018-12-25T10:52:16.927Z,14.33
2018-12-25T10:54:45.095Z,15.20
2018-12-25T10:57:13.303Z,17.63
2018-12-25T10:59:41.512Z,17.73
2018-12-25T11:02:09.680Z,13.43
2018-12-25T11:04:37.848Z,14.10
2018-12-25T11:07:06.086Z,11.87
2018-12-25T11:09:34.270Z,17.57
2018-12-25T11:12:03.406Z,17.20
2018-12-25T11:14:31.609Z,8.00
2018-12-25T11:16:59.779Z,10.87
2018-12-25T11:19:27.983Z,15.50
2018-12-25T11:21:56.159Z,12.70
2018-12-25T11:24:24.360Z,15.33
2018-12-25T11:26:52.533Z,16.03
2018-12-25T11:29:20.750Z,16.47
2018-12-25T11:31:48.912Z,19.13
2018-12-25T11:34:17.115Z,13.33
2018-12-25T11:36:45.288Z,14.30
2018-12-25T11:39:13.564Z,13.97
2018-12-25T11:41:41.738Z,13.77
2018-12-25T11:44:09.947Z,17.07
2018-12-25T11:46:38.112Z,14.40
2018-12-25T11:49:06.316Z,17.87
2018-12-25T11:51:34.488Z,16.80
2018-12-25T11:54:02.695Z,12.77
2018-12-25T11:56:30.873Z,12.30
2018-12-25T11:58:59.073Z,14.37
2018-12-25T12:01:27.249Z,16.17
2018-12-25T12:03:55.448Z,11.50
2018-12-25T12:06:23.617Z,13.00
2018-12-25T12:08:51.825Z,11.60
2018-12-25T12:11:19.995Z,10.47
2018-12-25T12:13:48.162Z,16.30
2018-12-25T12:16:16.366Z,11.90
2018-12-25T12:18:44.532Z,11.03
2018-12-25T12:21:12.737Z,14.57
2018-12-25T12:23:40.919Z,12.17
2018-12-25T12:26:09.100Z,12.23
2018-12-25T12:28:37.272Z,11.97
2018-12-25T12:31:05.476Z,12.70
2018-12-25T12:33:33.639Z,7.80
2018-12-25T12:36:01.845Z,12.73
2018-12-25T12:38:30.016Z,11.27
2018-12-25T12:40:58.219Z,12.30
2018-12-25T12:43:26.388Z,21.80
2018-12-25T12:46:06.941Z,17.50
2018-12-25T12:48:36.649Z,16.00
2018-12-25T12:51:04.805Z,9.27
2018-12-25T12:53:32.964Z,13.90
2018-12-25T12:56:01.166Z,10.47
2018-12-25T12:58:29.336Z,12.60
2018-12-25T13:00:57.549Z,19.43
2018-12-25T13:03:25.719Z,9.20
2018-12-25T13:05:53.938Z,11.27
2018-12-25T13:08:22.105Z,14.47
2018-12-25T13:10:50.310Z,12.40
2018-12-25T13:13:18.513Z,13.53
2018-12-25T13:15:46.681Z,7.63
2018-12-25T13:18:14.881Z,6.63
2018-12-25T13:20:43.048Z,9.87
2018-12-25T13:23:11.256Z,7.97
2018-12-25T13:25:39.423Z,14.33
2018-12-25T13:28:08.686Z,10.17
2018-12-25T13:30:36.850Z,8.03
2018-12-25T13:33:05.051Z,10.17
2018-12-25T13:35:33.224Z,13.77
2018-12-25T13:38:01.428Z,6.60
2018-12-25T13:40:29.598Z,10.70
2018-12-25T13:42:57.803Z,21.10
2018-12-25T13:45:26.354Z,12.50
2018-12-25T13:47:54.551Z,13.67
2018-12-25T13:50:24.917Z,13.27
2018-12-25T13:52:53.253Z,11.33
2018-12-25T13:55:21.421Z,15.77
2018-12-25T13:57:49.628Z,10.43
2018-12-25T14:00:17.792Z,9.83
2018-12-25T14:02:45.996Z,10.53
2018-12-25T14:05:14.176Z,13.17
2018-12-25T14:07:42.379Z,6.47
2018-12-25T14:10:10.549Z,5.77
2018-12-25T14:12:38.752Z,7.23
2018-12-25T14:15:06.921Z,7.30
2018-12-25T14:17:35.115Z,7.80
2018-12-25T14:20:03.279Z,6.93
2018-12-25T14:22:31.480Z,8.37
2018-12-25T14:24:59.643Z,9.07
2018-12-25T14:27:27.848Z,13.27
2018-12-25T14:29:56.019Z,10.27
2018-12-25T14:32:24.223Z,10.93
2018-12-25T14:35:03.030Z,6.40
2018-12-25T14:37:31.639Z,7.00
2018-12-25T14:40:00.050Z,7.80
2018-12-25T14:42:28.208Z,8.73
2018-12-25T14:44:56.653Z,7.30
2018-12-25T14:47:24.815Z,7.57
2018-12-25T14:49:53.253Z,7.87
2018-12-25T14:52:21.414Z,8.00
2018-12-25T14:54:49.613Z,6.03
2018-12-25T14:57:17.773Z,9.23
2018-12-25T14:59:45.980Z,11.20
2018-12-25T15:02:14.215Z,13.10
2018-12-25T15:04:42.449Z,9.60
2018-12-25T15:07:10.586Z,7.50
2018-12-25T15:09:38.785Z,8.93
2018-12-25T15:12:06.944Z,7.90
2018-12-25T15:14:35.150Z,6.43
2018-12-25T15:17:03.320Z,13.90
2018-12-25T15:19:31.525Z,32.70
2018-12-25T15:21:59.693Z,19.13
2018-12-25T15:24:27.894Z,29.77
2018-12-25T15:26:56.067Z,18.87
2018-12-25T15:29:24.276Z,23.23
2018-12-25T15:31:52.447Z,27.63
2018-12-25T15:34:20.652Z,23.10
2018-12-25T15:36:48.845Z,22.50
2018-12-25T15:39:17.051Z,9.33
2018-12-25T15:41:45.232Z,16.13
2018-12-25T15:44:13.444Z,15.50
2018-12-25T15:46:41.612Z,11.20
2018-12-25T15:49:09.818Z,15.37
2018-12-25T15:51:37.989Z,7.50
2018-12-25T15:54:06.187Z,10.90
2018-12-25T15:56:34.349Z,8.27
2018-12-25T15:59:02.548Z,12.10
2018-12-25T16:01:30.711Z,11.50
2018-12-25T16:03:58.919Z,10.73
2018-12-25T16:06:27.096Z,11.37
2018-12-25T16:08:55.262Z,13.00
2018-12-25T16:11:23.464Z,10.30
2018-12-25T16:13:51.623Z,10.03
2018-12-25T16:16:19.834Z,10.80
2018-12-25T16:18:47.999Z,10.00
2018-12-25T16:21:16.196Z,9.97
2018-12-25T16:23:45.474Z,9.03
2018-12-25T16:26:14.167Z,6.90
2018-12-25T16:28:42.339Z,8.57
2018-12-25T16:31:10.539Z,10.53
2018-12-25T16:33:38.773Z,9.57
2018-12-25T16:36:08.785Z,9.93
2018-12-25T16:38:36.796Z,9.30
2018-12-25T16:41:04.995Z,10.97
2018-12-25T16:43:33.160Z,14.03
2018-12-25T16:46:01.376Z,7.97
2018-12-25T16:48:29.545Z,13.67
2018-12-25T16:50:57.752Z,22.10
2018-12-25T16:53:25.919Z,15.27
2018-12-25T16:55:54.129Z,13.50
2018-12-25T16:58:22.529Z,15.67
2018-12-25T17:00:50.975Z,15.90
2018-12-25T17:03:19.134Z,11.90
2018-12-25T17:05:47.581Z,10.87
2018-12-25T17:08:15.984Z,14.87
2018-12-25T17:10:44.181Z,13.60
2018-12-25T17:13:12.590Z,10.70
2018-12-25T17:15:41.031Z,12.07
2018-12-25T17:18:11.184Z,14.83
2018-12-25T17:20:39.580Z,13.53
2018-12-25T17:23:07.981Z,11.70
2018-12-25T17:25:36.412Z,12.07
2018-12-25T17:28:04.822Z,13.83
2018-12-25T17:30:33.275Z,13.03
2018-12-25T17:33:01.677Z,12.70
2018-12-25T17:35:29.843Z,13.53
2018-12-25T17:37:58.052Z,13.57
2018-12-25T17:40:26.462Z,21.53
2018-12-25T17:42:54.902Z,14.37
2018-12-25T17:45:23.308Z,15.03
2018-12-25T17:47:51.758Z,19.90
2018-12-25T17:50:20.153Z,16.00
2018-12-25T17:52:48.354Z,19.87
2018-12-25T17:55:16.524Z,19.77
2018-12-25T17:57:44.735Z,15.47
2018-12-25T18:00:12.909Z,16.77
2018-12-25T18:02:41.112Z,15.70
2018-12-25T18:05:12.086Z,16.60
2018-12-25T18:07:39.127Z,17.07
2018-12-25T18:10:07.360Z,23.23
2018-12-25T18:12:35.517Z,19.00
2018-12-25T18:15:03.687Z,15.20
2018-12-25T18:17:31.893Z,17.93
2018-12-25T18:20:00.089Z,13.73
2018-12-25T18:22:28.463Z,11.10
2018-12-25T18:24:56.732Z,9.60
2018-12-25T18:27:24.936Z,8.87
2018-12-25T18:29:53.182Z,11.97
2018-12-25T18:32:21.398Z,10.73
2018-12-25T18:34:49.564Z,9.87
2018-12-25T18:37:17.764Z,8.30
2018-12-25T18:39:50.237Z,9.93
2018-12-25T18:42:23.223Z,12.90
2018-12-25T18:44:48.381Z,12.77
2018-12-25T18:47:16.584Z,17.60
2018-12-25T18:49:44.759Z,11.03
2018-12-25T18:52:12.976Z,12.63
2018-12-25T18:54:41.152Z,10.47
2018-12-25T18:57:09.324Z,11.10
2018-12-25T18:59:37.617Z,12.07
2018-12-25T19:02:05.991Z,8.50
2018-12-25T19:04:34.208Z,11.97
2018-12-25T19:07:02.383Z,9.60
2018-12-25T19:09:30.588Z,10.87
2018-12-25T19:11:58.765Z,10.60
2018-12-25T19:14:26.965Z,14.87
2018-12-25T19:16:55.134Z,13.30
2018-12-25T19:19:23.336Z,10.23
2018-12-25T19:21:51.512Z,12.50
2018-12-25T19:24:19.715Z,18.23
2018-12-25T19:26:47.879Z,31.83
2018-12-25T19:29:16.091Z,40.90
2018-12-25T19:31:44.264Z,32.93
2018-12-25T19:34:12.468Z,15.13
2018-12-25T19:36:40.638Z,11.47
2018-12-25T19:39:08.845Z,13.70
2018-12-25T19:41:37.081Z,14.40
2018-12-25T19:44:05.290Z,19.87
2018-12-25T19:46:33.461Z,17.97
2018-12-25T19:49:01.673Z,17.53
2018-12-25T19:51:29.843Z,16.73
2018-12-25T19:53:58.055Z,14.53
2018-12-25T19:56:26.228Z,18.23
2018-12-25T19:58:54.441Z,19.97
2018-12-25T20:01:22.621Z,21.27
2018-12-25T20:03:50.831Z,26.37
2018-12-25T20:06:37.512Z,29.67
2018-12-25T20:09:07.348Z,23.60
2018-12-25T20:11:37.153Z,26.80
2018-12-25T20:14:23.424Z,24.87
2018-12-25T20:17:08.289Z,16.30
2018-12-25T20:19:47.363Z,20.67
2018-12-25T20:22:19.913Z,16.27
2018-12-25T20:24:52.901Z,18.47
2018-12-25T20:27:22.723Z,17.63
2018-12-25T20:30:07.794Z,16.83
2018-12-25T20:32:49.795Z,15.33
2018-12-25T20:35:19.636Z,17.43
2018-12-25T20:38:05.892Z,15.17
2018-12-25T20:40:47.709Z,20.10
2018-12-25T20:43:20.432Z,20.20
2018-12-25T20:46:08.704Z,27.23
2018-12-25T20:48:38.512Z,15.77
2018-12-25T20:51:25.345Z,17.27
2018-12-25T20:54:01.121Z,22.37
2018-12-25T20:56:54.175Z,15.30
2018-12-25T20:59:42.120Z,14.30
2018-12-25T21:02:17.564Z,14.17
2018-12-25T21:04:47.398Z,15.43
2018-12-25T21:07:23.137Z,14.23
2018-12-25T21:10:09.895Z,14.40
2018-12-25T21:12:51.632Z,11.00
2018-12-25T21:15:38.099Z,14.83
2018-12-25T21:18:07.906Z,18.10
2018-12-25T21:20:43.718Z,17.47
2018-12-25T21:23:30.216Z,15.50
2018-12-25T21:26:16.688Z,17.57
2018-12-25T21:28:44.855Z,20.53
2018-12-25T21:31:13.066Z,20.40
2018-12-25T21:33:41.250Z,17.00
2018-12-25T21:36:09.491Z,16.10
2018-12-25T21:38:37.664Z,15.20
2018-12-25T21:41:06.141Z,17.40
2018-12-25T21:43:34.415Z,14.87
2018-12-25T21:46:02.630Z,18.50
2018-12-25T21:48:30.802Z,14.93
2018-12-25T21:50:59.012Z,15.20
2018-12-25T21:53:27.186Z,20.40
2018-12-25T21:55:55.393Z,17.33
2018-12-25T21:58:23.567Z,17.33
2018-12-25T22:00:51.775Z,17.60
2018-12-25T22:03:19.952Z,17.57
2018-12-25T22:05:48.165Z,17.17
2018-12-25T22:08:16.339Z,15.93
2018-12-25T22:10:44.503Z,17.27
2018-12-25T22:13:12.721Z,19.70
2018-12-25T22:15:40.892Z,17.33
2018-12-25T22:18:09.631Z,16.20
2018-12-25T22:20:37.872Z,15.20
2018-12-25T22:23:06.083Z,16.73
2018-12-25T22:25:34.395Z,15.90
2018-12-25T22:28:02.663Z,17.20
2018-12-25T22:30:30.838Z,17.07
2018-12-25T22:32:59.050Z,19.00
2018-12-25T22:35:27.229Z,18.43
2018-12-25T22:37:55.435Z,17.80
2018-12-25T22:40:23.614Z,14.73
2018-12-25T22:42:51.816Z,16.60
2018-12-25T22:45:19.988Z,19.40
2018-12-25T22:47:48.199Z,15.67
2018-12-25T22:50:16.377Z,18.23
2018-12-25T22:52:44.587Z,21.77
2018-12-25T22:55:12.768Z,19.90
2018-12-25T22:57:40.972Z,20.50
2018-12-25T23:00:10.019Z,16.80
2018-12-25T23:02:38.223Z,14.90
2018-12-25T23:05:06.396Z,16.00
2018-12-25T23:07:34.616Z,16.17
2018-12-25T23:10:03.274Z,18.03
2018-12-25T23:12:31.436Z,16.97
2018-12-25T23:14:59.647Z,17.90
2018-12-25T23:17:27.823Z,16.60
2018-12-25T23:19:56.056Z,17.37
2018-12-25T23:22:24.233Z,19.57
2018-12-25T23:24:52.440Z,19.97
2018-12-25T23:27:20.681Z,14.63
2018-12-25T23:29:48.888Z,20.50
2018-12-25T23:32:17.061Z,18.90
2018-12-25T23:34:45.283Z,17.57
2018-12-25T23:37:13.450Z,19.17
2018-12-25T23:39:41.655Z,19.93
2018-12-25T23:42:09.840Z,21.23
2018-12-25T23:44:38.053Z,14.83
2018-12-25T23:47:06.229Z,16.37
2018-12-25T23:49:34.441Z,17.17
2018-12-25T23:52:02.621Z,16.97
2018-12-25T23:54:30.829Z,15.57
2018-12-25T23:56:59.007Z,17.17
2018-12-25T23:59:27.216Z,17.40
